createdAt,value
2023-03-05T00:01:07.877Z,87.00
2023-03-05T00:11:06.585Z,87.60
2023-03-05T00:21:05.612Z,88.20
2023-03-05T00:31:05.365Z,88.60
2023-03-05T00:41:04.731Z,88.60
2023-03-05T00:51:03.610Z,88.50
2023-03-05T01:01:02.851Z,89.00
2023-03-05T01:11:01.665Z,88.90
2023-03-05T01:21:00.742Z,89.00
2023-03-05T01:30:59.725Z,89.20
2023-03-05T01:40:58.586Z,89.60
2023-03-05T01:50:58.065Z,89.90
2023-03-05T02:00:56.772Z,90.10
2023-03-05T02:10:57.095Z,90.30
2023-03-05T02:20:55.792Z,90.40
2023-03-05T02:30:54.626Z,90.40
2023-03-05T02:40:53.765Z,90.40
2023-03-05T02:50:52.823Z,90.50
2023-03-05T03:00:52.096Z,90.60
2023-03-05T03:10:50.820Z,90.70
2023-03-05T03:20:49.676Z,90.70
2023-03-05T03:30:48.739Z,90.60
2023-03-05T03:40:47.774Z,90.60
2023-03-05T03:50:46.821Z,90.40
2023-03-05T04:00:45.882Z,90.40
2023-03-05T04:10:44.695Z,90.50
2023-03-05T04:20:43.749Z,90.80
2023-03-05T04:30:42.869Z,90.90
2023-03-05T04:40:41.821Z,90.80
2023-03-05T04:50:40.673Z,90.80
2023-03-05T05:00:39.685Z,90.70
2023-03-05T05:10:39.590Z,90.60
2023-03-05T05:20:38.664Z,90.60
2023-03-05T05:30:37.874Z,90.60
2023-03-05T05:40:36.734Z,90.70
2023-03-05T05:50:35.793Z,90.90
2023-03-05T06:00:34.838Z,91.10
2023-03-05T06:10:33.876Z,91.10
2023-03-05T06:20:32.920Z,90.90
2023-03-05T06:30:31.889Z,90.90
2023-03-05T06:40:31.313Z,91.00
2023-03-05T06:50:29.965Z,90.90
2023-03-05T07:00:30.440Z,91.10
2023-03-05T07:10:29.827Z,90.90
2023-03-05T07:20:29.196Z,90.80
2023-03-05T07:30:27.897Z,90.60
2023-03-05T07:40:26.896Z,90.40
2023-03-05T07:50:25.799Z,90.30
2023-03-05T08:00:27.921Z,90.00
2023-03-05T08:10:26.818Z,89.90
2023-03-05T08:20:25.819Z,89.90
2023-03-05T08:30:28.006Z,89.90
2023-03-05T08:40:26.853Z,90.00
2023-03-05T08:50:25.859Z,90.00
2023-03-05T09:00:24.856Z,90.00
2023-03-05T09:10:23.926Z,89.50
2023-03-05T09:20:23.095Z,89.70
2023-03-05T09:30:22.100Z,90.00
2023-03-05T09:40:21.030Z,90.50
2023-03-05T09:50:19.868Z,90.00
2023-03-05T10:00:18.952Z,89.20
2023-03-05T10:10:17.956Z,88.30
2023-03-05T10:20:16.809Z,88.20
2023-03-05T10:30:15.856Z,87.00
2023-03-05T10:40:15.300Z,88.90
2023-03-05T10:50:13.947Z,89.40
2023-03-05T11:00:13.282Z,87.50
2023-03-05T11:10:11.925Z,87.70
2023-03-05T11:20:10.942Z,84.50
2023-03-05T11:30:09.811Z,83.90
2023-03-05T11:40:08.951Z,82.00
2023-03-05T11:50:07.997Z,78.60
2023-03-05T12:00:10.972Z,78.40
2023-03-05T12:10:10.016Z,76.00
2023-03-05T12:20:09.022Z,77.90
2023-03-05T12:30:07.830Z,78.30
2023-03-05T12:40:08.175Z,79.60
2023-03-05T12:50:07.173Z,80.40
2023-03-05T13:00:07.817Z,80.90
2023-03-05T13:10:06.847Z,79.80
2023-03-05T13:20:06.445Z,80.50
2023-03-05T13:30:06.351Z,80.00
2023-03-05T13:40:06.829Z,80.40
2023-03-05T13:50:06.014Z,78.60
2023-03-05T14:00:05.638Z,79.10
2023-03-05T14:10:05.252Z,78.70
2023-03-05T14:20:04.173Z,77.50
2023-03-05T14:30:02.905Z,77.30
2023-03-05T14:40:05.028Z,75.00
2023-03-05T14:50:04.390Z,75.40
2023-03-05T15:00:03.083Z,75.20
2023-03-05T15:10:02.059Z,76.80
2023-03-05T15:20:01.085Z,77.40
2023-03-05T15:30:00.188Z,78.50
2023-03-05T15:39:59.178Z,80.80
2023-03-05T15:49:58.036Z,81.80
2023-03-05T15:59:57.081Z,81.80
2023-03-05T16:09:56.111Z,81.90
2023-03-05T16:19:55.004Z,82.20
2023-03-05T16:29:53.923Z,82.20
2023-03-05T16:39:56.168Z,82.70
2023-03-05T16:49:55.171Z,82.60
2023-03-05T16:59:54.310Z,83.10
2023-03-05T17:09:53.158Z,83.20
2023-03-05T17:19:52.109Z,83.50
2023-03-05T17:29:51.254Z,83.80
2023-03-05T17:39:50.289Z,83.80
2023-03-05T17:49:49.966Z,83.90
2023-03-05T17:59:49.185Z,84.10
2023-03-05T18:09:48.157Z,84.30
2023-03-05T18:19:47.373Z,84.70
2023-03-05T18:29:46.267Z,85.00
2023-03-05T18:39:45.095Z,85.20
2023-03-05T18:49:44.143Z,85.50
2023-03-05T18:59:43.201Z,85.90
2023-03-05T19:09:49.602Z,86.40
2023-03-05T19:19:49.265Z,86.60
2023-03-05T19:29:48.511Z,87.00
2023-03-05T19:39:47.216Z,87.20
2023-03-05T19:49:46.203Z,87.40
2023-03-05T19:55:47.863Z,87.80
2023-03-05T20:05:46.995Z,87.80
2023-03-05T20:15:45.918Z,88.20
2023-03-05T20:25:45.011Z,88.40
2023-03-05T20:35:44.103Z,88.80
2023-03-05T20:45:42.913Z,89.20
2023-03-05T20:55:41.953Z,89.40
2023-03-05T21:05:40.901Z,89.60
2023-03-05T21:15:39.808Z,89.80
2023-03-05T21:25:39.125Z,90.20
2023-03-05T21:35:38.012Z,90.50
2023-03-05T21:45:36.974Z,91.00
2023-03-05T21:55:37.994Z,91.20
2023-03-05T22:05:36.938Z,91.30
2023-03-05T22:15:35.946Z,91.60
2023-03-05T22:25:34.835Z,91.80
2023-03-05T22:35:34.025Z,91.90
2023-03-05T22:45:33.217Z,91.90
2023-03-05T22:55:31.958Z,92.10
2023-03-05T23:05:31.088Z,92.40
2023-03-05T23:15:30.057Z,92.80
2023-03-05T23:25:28.911Z,93.10
2023-03-05T23:35:28.190Z,93.40
2023-03-05T23:45:27.190Z,93.80
2023-03-05T23:55:25.978Z,94.00
